sensor_id;sensor_type;location;lat;lon;timestamp;P1;durP1;ratioP1;P2;durP2;ratioP2
51578;SDS011;47998;53.242;6.386;2022-12-01T00:00:58;169.10;;;53.03;;
51578;SDS011;47998;53.242;6.386;2022-12-01T00:03:24;174.88;;;54.03;;
51578;SDS011;47998;53.242;6.386;2022-12-01T00:06:01;178.48;;;54.83;;
51578;SDS011;47998;53.242;6.386;2022-12-01T00:08:39;160.73;;;51.65;;
51578;SDS011;47998;53.242;6.386;2022-12-01T00:11:25;147.82;;;51.53;;
51578;SDS011;47998;53.242;6.386;2022-12-01T00:13:51;158.95;;;52.65;;
51578;SDS011;47998;53.242;6.386;2022-12-01T00:16:16;154.13;;;50.03;;
51578;SDS011;47998;53.242;6.386;2022-12-01T00:18:42;156.32;;;52.45;;
51578;SDS011;47998;53.242;6.386;2022-12-01T00:21:12;158.32;;;50.38;;
51578;SDS011;47998;53.242;6.386;2022-12-01T00:23:41;153.60;;;52.85;;
51578;SDS011;47998;53.242;6.386;2022-12-01T00:26:08;158.02;;;51.22;;
51578;SDS011;47998;53.242;6.386;2022-12-01T00:28:33;165.75;;;54.45;;
51578;SDS011;47998;53.242;6.386;2022-12-01T00:30:59;155.95;;;53.72;;
51578;SDS011;47998;53.242;6.386;2022-12-01T00:33:25;151.27;;;50.58;;
51578;SDS011;47998;53.242;6.386;2022-12-01T00:35:56;173.32;;;55.75;;
51578;SDS011;47998;53.242;6.386;2022-12-01T00:38:22;158.52;;;52.22;;
51578;SDS011;47998;53.242;6.386;2022-12-01T00:40:48;158.20;;;51.08;;
51578;SDS011;47998;53.242;6.386;2022-12-01T00:43:14;167.68;;;53.28;;
51578;SDS011;47998;53.242;6.386;2022-12-01T00:45:41;166.52;;;53.47;;
51578;SDS011;47998;53.242;6.386;2022-12-01T00:48:07;174.13;;;53.22;;
51578;SDS011;47998;53.242;6.386;2022-12-01T00:50:32;163.48;;;53.88;;
51578;SDS011;47998;53.242;6.386;2022-12-01T00:52:58;171.25;;;52.47;;
51578;SDS011;47998;53.242;6.386;2022-12-01T00:55:24;172.00;;;55.03;;
51578;SDS011;47998;53.242;6.386;2022-12-01T00:57:49;169.10;;;52.67;;
51578;SDS011;47998;53.242;6.386;2022-12-01T01:00:15;179.40;;;54.95;;
51578;SDS011;47998;53.242;6.386;2022-12-01T01:02:41;165.15;;;54.17;;
51578;SDS011;47998;53.242;6.386;2022-12-01T01:05:07;162.27;;;53.20;;
51578;SDS011;47998;53.242;6.386;2022-12-01T01:07:33;164.73;;;53.15;;
51578;SDS011;47998;53.242;6.386;2022-12-01T01:09:59;169.43;;;54.63;;
51578;SDS011;47998;53.242;6.386;2022-12-01T01:12:25;164.23;;;54.08;;
51578;SDS011;47998;53.242;6.386;2022-12-01T01:14:51;160.63;;;53.95;;
51578;SDS011;47998;53.242;6.386;2022-12-01T01:17:17;188.07;;;57.33;;
51578;SDS011;47998;53.242;6.386;2022-12-01T01:19:44;154.70;;;53.63;;
51578;SDS011;47998;53.242;6.386;2022-12-01T01:22:10;151.25;;;51.25;;
51578;SDS011;47998;53.242;6.386;2022-12-01T01:24:35;154.95;;;53.35;;
51578;SDS011;47998;53.242;6.386;2022-12-01T01:27:01;160.23;;;53.92;;
51578;SDS011;47998;53.242;6.386;2022-12-01T01:29:27;157.27;;;54.58;;
51578;SDS011;47998;53.242;6.386;2022-12-01T01:31:53;177.73;;;55.95;;
51578;SDS011;47998;53.242;6.386;2022-12-01T01:34:18;165.77;;;55.15;;
51578;SDS011;47998;53.242;6.386;2022-12-01T01:36:45;147.20;;;52.80;;
51578;SDS011;47998;53.242;6.386;2022-12-01T01:39:11;145.63;;;52.63;;
51578;SDS011;47998;53.242;6.386;2022-12-01T01:41:37;170.63;;;53.60;;
51578;SDS011;47998;53.242;6.386;2022-12-01T01:44:03;148.50;;;52.42;;
51578;SDS011;47998;53.242;6.386;2022-12-01T01:47:06;149.32;;;51.92;;
51578;SDS011;47998;53.242;6.386;2022-12-01T01:49:32;159.48;;;52.67;;
51578;SDS011;47998;53.242;6.386;2022-12-01T01:51:57;150.82;;;52.13;;
51578;SDS011;47998;53.242;6.386;2022-12-01T01:54:34;151.80;;;53.05;;
51578;SDS011;47998;53.242;6.386;2022-12-01T01:57:06;147.63;;;52.65;;
51578;SDS011;47998;53.242;6.386;2022-12-01T01:59:39;161.63;;;53.25;;
51578;SDS011;47998;53.242;6.386;2022-12-01T02:02:11;154.13;;;52.22;;
51578;SDS011;47998;53.242;6.386;2022-12-01T02:04:38;155.20;;;53.20;;
51578;SDS011;47998;53.242;6.386;2022-12-01T02:07:08;148.82;;;50.90;;
51578;SDS011;47998;53.242;6.386;2022-12-01T02:09:36;157.45;;;56.10;;
51578;SDS011;47998;53.242;6.386;2022-12-01T02:12:04;151.20;;;52.92;;
51578;SDS011;47998;53.242;6.386;2022-12-01T02:17:24;163.68;;;54.38;;
51578;SDS011;47998;53.242;6.386;2022-12-01T02:20:31;154.13;;;55.83;;
51578;SDS011;47998;53.242;6.386;2022-12-01T02:31:30;169.07;;;52.58;;
51578;SDS011;47998;53.242;6.386;2022-12-01T02:37:20;152.00;;;53.30;;
51578;SDS011;47998;53.242;6.386;2022-12-01T02:39:44;153.55;;;51.53;;
51578;SDS011;47998;53.242;6.386;2022-12-01T02:42:19;164.93;;;52.58;;
51578;SDS011;47998;53.242;6.386;2022-12-01T02:45:52;177.63;;;54.42;;
51578;SDS011;47998;53.242;6.386;2022-12-01T02:48:30;169.20;;;55.45;;
51578;SDS011;47998;53.242;6.386;2022-12-01T02:50:59;166.50;;;52.08;;
51578;SDS011;47998;53.242;6.386;2022-12-01T02:53:41;196.10;;;53.15;;
51578;SDS011;47998;53.242;6.386;2022-12-01T02:56:12;177.68;;;53.83;;
51578;SDS011;47998;53.242;6.386;2022-12-01T02:58:41;196.38;;;56.03;;
51578;SDS011;47998;53.242;6.386;2022-12-01T03:12:14;189.55;;;55.90;;
51578;SDS011;47998;53.242;6.386;2022-12-01T03:17:35;200.73;;;55.72;;
51578;SDS011;47998;53.242;6.386;2022-12-01T03:20:11;189.20;;;55.72;;
51578;SDS011;47998;53.242;6.386;2022-12-01T03:22:49;199.43;;;58.28;;
51578;SDS011;47998;53.242;6.386;2022-12-01T03:25:24;179.88;;;56.63;;
51578;SDS011;47998;53.242;6.386;2022-12-01T03:27:52;185.50;;;57.47;;
51578;SDS011;47998;53.242;6.386;2022-12-01T03:30:21;183.32;;;56.72;;
51578;SDS011;47998;53.242;6.386;2022-12-01T03:32:50;195.77;;;59.47;;
51578;SDS011;47998;53.242;6.386;2022-12-01T03:35:25;188.40;;;54.85;;
51578;SDS011;47998;53.242;6.386;2022-12-01T03:38:39;185.55;;;56.70;;
51578;SDS011;47998;53.242;6.386;2022-12-01T03:40:48;179.38;;;55.45;;
51578;SDS011;47998;53.242;6.386;2022-12-01T03:43:21;197.50;;;59.50;;
51578;SDS011;47998;53.242;6.386;2022-12-01T03:45:57;196.27;;;56.35;;
51578;SDS011;47998;53.242;6.386;2022-12-01T03:48:33;197.98;;;57.33;;
51578;SDS011;47998;53.242;6.386;2022-12-01T03:56:53;181.70;;;55.53;;
51578;SDS011;47998;53.242;6.386;2022-12-01T03:59:23;186.52;;;58.60;;
51578;SDS011;47998;53.242;6.386;2022-12-01T04:01:51;184.15;;;56.65;;
51578;SDS011;47998;53.242;6.386;2022-12-01T04:04:17;180.20;;;57.60;;
51578;SDS011;47998;53.242;6.386;2022-12-01T04:06:45;179.65;;;56.78;;
51578;SDS011;47998;53.242;6.386;2022-12-01T04:09:12;178.82;;;56.85;;
51578;SDS011;47998;53.242;6.386;2022-12-01T04:11:38;187.10;;;58.17;;
51578;SDS011;47998;53.242;6.386;2022-12-01T04:14:23;183.95;;;56.05;;
51578;SDS011;47998;53.242;6.386;2022-12-01T04:16:48;185.40;;;57.30;;
51578;SDS011;47998;53.242;6.386;2022-12-01T04:19:14;201.38;;;55.72;;
51578;SDS011;47998;53.242;6.386;2022-12-01T04:21:40;175.90;;;55.75;;
51578;SDS011;47998;53.242;6.386;2022-12-01T04:24:05;203.70;;;57.22;;
51578;SDS011;47998;53.242;6.386;2022-12-01T04:26:32;185.63;;;53.40;;
51578;SDS011;47998;53.242;6.386;2022-12-01T04:29:00;183.10;;;53.63;;
51578;SDS011;47998;53.242;6.386;2022-12-01T04:31:30;206.52;;;56.22;;
51578;SDS011;47998;53.242;6.386;2022-12-01T04:33:56;200.60;;;57.42;;
51578;SDS011;47998;53.242;6.386;2022-12-01T04:36:23;186.45;;;56.60;;
51578;SDS011;47998;53.242;6.386;2022-12-01T04:38:50;198.73;;;56.65;;
51578;SDS011;47998;53.242;6.386;2022-12-01T04:41:15;190.95;;;56.03;;
51578;SDS011;47998;53.242;6.386;2022-12-01T04:43:41;177.18;;;53.60;;
51578;SDS011;47998;53.242;6.386;2022-12-01T04:46:07;177.00;;;55.33;;
51578;SDS011;47998;53.242;6.386;2022-12-01T04:48:34;184.35;;;54.97;;
51578;SDS011;47998;53.242;6.386;2022-12-01T04:51:00;176.07;;;52.40;;
51578;SDS011;47998;53.242;6.386;2022-12-01T04:53:26;178.50;;;52.25;;
51578;SDS011;47998;53.242;6.386;2022-12-01T04:55:52;176.20;;;52.03;;
51578;SDS011;47998;53.242;6.386;2022-12-01T04:58:18;163.35;;;50.45;;
51578;SDS011;47998;53.242;6.386;2022-12-01T05:00:43;191.70;;;50.10;;
51578;SDS011;47998;53.242;6.386;2022-12-01T05:03:09;198.43;;;52.88;;
51578;SDS011;47998;53.242;6.386;2022-12-01T05:05:35;190.40;;;49.35;;
51578;SDS011;47998;53.242;6.386;2022-12-01T05:08:01;199.10;;;52.75;;
51578;SDS011;47998;53.242;6.386;2022-12-01T05:10:27;198.02;;;52.88;;
51578;SDS011;47998;53.242;6.386;2022-12-01T05:12:52;207.88;;;55.17;;
51578;SDS011;47998;53.242;6.386;2022-12-01T05:15:19;219.55;;;55.75;;
51578;SDS011;47998;53.242;6.386;2022-12-01T05:17:45;234.35;;;56.22;;
51578;SDS011;47998;53.242;6.386;2022-12-01T05:20:13;268.23;;;57.08;;
51578;SDS011;47998;53.242;6.386;2022-12-01T05:23:01;240.93;;;55.50;;
51578;SDS011;47998;53.242;6.386;2022-12-01T05:25:27;213.75;;;50.45;;
51578;SDS011;47998;53.242;6.386;2022-12-01T05:27:53;223.43;;;52.95;;
51578;SDS011;47998;53.242;6.386;2022-12-01T05:30:19;253.50;;;55.42;;
51578;SDS011;47998;53.242;6.386;2022-12-01T05:32:44;214.15;;;52.72;;
51578;SDS011;47998;53.242;6.386;2022-12-01T05:35:10;210.55;;;52.85;;
51578;SDS011;47998;53.242;6.386;2022-12-01T05:37:36;249.05;;;56.85;;
51578;SDS011;47998;53.242;6.386;2022-12-01T05:40:01;275.07;;;57.77;;
51578;SDS011;47998;53.242;6.386;2022-12-01T05:42:28;276.40;;;58.88;;
51578;SDS011;47998;53.242;6.386;2022-12-01T05:44:53;331.48;;;64.80;;
51578;SDS011;47998;53.242;6.386;2022-12-01T05:47:19;414.63;;;72.00;;
51578;SDS011;47998;53.242;6.386;2022-12-01T05:49:45;637.33;;;77.82;;
51578;SDS011;47998;53.242;6.386;2022-12-01T05:52:11;1314.95;;;95.60;;
51578;SDS011;47998;53.242;6.386;2022-12-01T05:54:36;1334.65;;;79.53;;
51578;SDS011;47998;53.242;6.386;2022-12-01T05:57:02;1530.80;;;93.70;;
51578;SDS011;47998;53.242;6.386;2022-12-01T05:59:28;1106.13;;;52.50;;
51578;SDS011;47998;53.242;6.386;2022-12-01T06:01:53;1083.13;;;63.28;;
51578;SDS011;47998;53.242;6.386;2022-12-01T06:04:19;882.60;;;50.90;;
51578;SDS011;47998;53.242;6.386;2022-12-01T06:06:45;921.33;;;62.33;;
51578;SDS011;47998;53.242;6.386;2022-12-01T06:09:11;774.03;;;53.42;;
51578;SDS011;47998;53.242;6.386;2022-12-01T06:11:36;883.33;;;58.58;;
51578;SDS011;47998;53.242;6.386;2022-12-01T06:14:02;740.42;;;50.45;;
51578;SDS011;47998;53.242;6.386;2022-12-01T06:16:28;623.20;;;43.20;;
51578;SDS011;47998;53.242;6.386;2022-12-01T06:18:53;753.92;;;52.03;;
51578;SDS011;47998;53.242;6.386;2022-12-01T06:21:19;721.83;;;48.72;;
51578;SDS011;47998;53.242;6.386;2022-12-01T06:23:45;581.67;;;42.70;;
51578;SDS011;47998;53.242;6.386;2022-12-01T06:26:10;443.52;;;40.00;;
51578;SDS011;47998;53.242;6.386;2022-12-01T06:28:36;478.05;;;42.58;;
51578;SDS011;47998;53.242;6.386;2022-12-01T06:31:02;468.03;;;38.23;;
51578;SDS011;47998;53.242;6.386;2022-12-01T06:33:27;271.70;;;32.00;;
51578;SDS011;47998;53.242;6.386;2022-12-01T06:35:57;153.07;;;30.60;;
51578;SDS011;47998;53.242;6.386;2022-12-01T06:38:34;179.18;;;30.52;;
51578;SDS011;47998;53.242;6.386;2022-12-01T06:41:01;114.22;;;28.35;;
51578;SDS011;47998;53.242;6.386;2022-12-01T06:43:27;153.23;;;32.25;;
51578;SDS011;47998;53.242;6.386;2022-12-01T06:45:53;136.93;;;32.42;;
51578;SDS011;47998;53.242;6.386;2022-12-01T06:48:19;93.97;;;26.10;;
51578;SDS011;47998;53.242;6.386;2022-12-01T06:50:44;135.80;;;28.57;;
51578;SDS011;47998;53.242;6.386;2022-12-01T06:53:10;220.50;;;34.90;;
51578;SDS011;47998;53.242;6.386;2022-12-01T06:55:36;150.00;;;33.47;;
51578;SDS011;47998;53.242;6.386;2022-12-01T06:58:03;167.97;;;35.43;;
51578;SDS011;47998;53.242;6.386;2022-12-01T07:00:29;186.90;;;37.60;;
51578;SDS011;47998;53.242;6.386;2022-12-01T07:02:55;194.23;;;38.20;;
51578;SDS011;47998;53.242;6.386;2022-12-01T07:05:20;221.93;;;38.60;;
51578;SDS011;47998;53.242;6.386;2022-12-01T07:07:46;133.47;;;30.50;;
51578;SDS011;47998;53.242;6.386;2022-12-01T07:10:12;148.43;;;29.93;;
51578;SDS011;47998;53.242;6.386;2022-12-01T07:12:38;169.13;;;32.47;;
51578;SDS011;47998;53.242;6.386;2022-12-01T07:15:05;108.47;;;28.17;;
51578;SDS011;47998;53.242;6.386;2022-12-01T07:17:33;104.73;;;30.27;;
51578;SDS011;47998;53.242;6.386;2022-12-01T07:19:59;111.00;;;30.97;;
51578;SDS011;47998;53.242;6.386;2022-12-01T07:22:24;140.23;;;32.73;;
51578;SDS011;47998;53.242;6.386;2022-12-01T07:24:51;115.20;;;31.07;;
51578;SDS011;47998;53.242;6.386;2022-12-01T07:27:17;134.57;;;32.97;;
51578;SDS011;47998;53.242;6.386;2022-12-01T07:29:43;139.77;;;33.88;;
51578;SDS011;47998;53.242;6.386;2022-12-01T07:32:08;125.35;;;30.95;;
51578;SDS011;47998;53.242;6.386;2022-12-01T07:34:34;151.23;;;35.17;;
51578;SDS011;47998;53.242;6.386;2022-12-01T07:37:00;164.90;;;34.80;;
51578;SDS011;47998;53.242;6.386;2022-12-01T07:39:25;155.80;;;29.83;;
51578;SDS011;47998;53.242;6.386;2022-12-01T07:41:51;250.87;;;37.20;;
51578;SDS011;47998;53.242;6.386;2022-12-01T07:44:17;258.07;;;36.73;;
51578;SDS011;47998;53.242;6.386;2022-12-01T07:46:42;98.87;;;28.73;;
51578;SDS011;47998;53.242;6.386;2022-12-01T07:49:08;98.07;;;27.63;;
51578;SDS011;47998;53.242;6.386;2022-12-01T07:51:36;106.72;;;29.38;;
51578;SDS011;47998;53.242;6.386;2022-12-01T07:54:03;101.07;;;29.83;;
51578;SDS011;47998;53.242;6.386;2022-12-01T07:56:29;112.47;;;33.53;;
51578;SDS011;47998;53.242;6.386;2022-12-01T07:58:55;133.87;;;34.27;;
51578;SDS011;47998;53.242;6.386;2022-12-01T08:01:21;152.67;;;35.57;;
51578;SDS011;47998;53.242;6.386;2022-12-01T08:03:49;128.03;;;32.20;;
51578;SDS011;47998;53.242;6.386;2022-12-01T08:06:19;129.90;;;30.07;;
51578;SDS011;47998;53.242;6.386;2022-12-01T08:08:46;112.50;;;29.33;;
51578;SDS011;47998;53.242;6.386;2022-12-01T08:11:22;131.63;;;31.83;;
51578;SDS011;47998;53.242;6.386;2022-12-01T08:13:50;133.27;;;29.50;;
51578;SDS011;47998;53.242;6.386;2022-12-01T08:16:18;182.63;;;29.13;;
51578;SDS011;47998;53.242;6.386;2022-12-01T08:18:45;122.53;;;24.47;;
51578;SDS011;47998;53.242;6.386;2022-12-01T08:21:11;127.35;;;24.90;;
51578;SDS011;47998;53.242;6.386;2022-12-01T08:23:42;127.17;;;25.03;;
51578;SDS011;47998;53.242;6.386;2022-12-01T08:26:11;318.13;;;35.93;;
51578;SDS011;47998;53.242;6.386;2022-12-01T08:28:39;203.82;;;33.85;;
51578;SDS011;47998;53.242;6.386;2022-12-01T08:31:11;115.50;;;28.47;;
51578;SDS011;47998;53.242;6.386;2022-12-01T08:33:39;121.53;;;28.73;;
51578;SDS011;47998;53.242;6.386;2022-12-01T08:36:05;110.07;;;26.53;;
51578;SDS011;47998;53.242;6.386;2022-12-01T08:38:31;103.67;;;25.07;;
51578;SDS011;47998;53.242;6.386;2022-12-01T08:41:05;114.90;;;23.53;;
51578;SDS011;47998;53.242;6.386;2022-12-01T08:43:32;96.63;;;24.15;;
51578;SDS011;47998;53.242;6.386;2022-12-01T08:45:59;79.00;;;19.70;;
51578;SDS011;47998;53.242;6.386;2022-12-01T08:48:26;75.20;;;20.43;;
51578;SDS011;47998;53.242;6.386;2022-12-01T08:51:00;76.13;;;21.35;;
51578;SDS011;47998;53.242;6.386;2022-12-01T08:53:26;70.03;;;22.77;;
51578;SDS011;47998;53.242;6.386;2022-12-01T08:55:52;57.17;;;21.10;;
51578;SDS011;47998;53.242;6.386;2022-12-01T08:58:17;64.22;;;20.83;;
51578;SDS011;47998;53.242;6.386;2022-12-01T09:00:43;61.30;;;21.33;;
51578;SDS011;47998;53.242;6.386;2022-12-01T09:03:09;80.57;;;22.13;;
51578;SDS011;47998;53.242;6.386;2022-12-01T09:05:35;80.50;;;23.40;;
51578;SDS011;47998;53.242;6.386;2022-12-01T09:08:00;71.90;;;22.57;;
51578;SDS011;47998;53.242;6.386;2022-12-01T09:10:51;65.50;;;21.17;;
51578;SDS011;47998;53.242;6.386;2022-12-01T09:13:16;87.80;;;24.87;;
51578;SDS011;47998;53.242;6.386;2022-12-01T09:15:42;98.57;;;26.83;;
51578;SDS011;47998;53.242;6.386;2022-12-01T09:18:08;59.97;;;22.80;;
51578;SDS011;47998;53.242;6.386;2022-12-01T09:20:33;70.80;;;24.55;;
51578;SDS011;47998;53.242;6.386;2022-12-01T09:22:59;69.40;;;24.17;;
51578;SDS011;47998;53.242;6.386;2022-12-01T09:25:25;72.25;;;24.65;;
51578;SDS011;47998;53.242;6.386;2022-12-01T09:27:51;79.22;;;25.15;;
51578;SDS011;47998;53.242;6.386;2022-12-01T09:30:16;75.43;;;27.95;;
51578;SDS011;47998;53.242;6.386;2022-12-01T09:32:42;73.78;;;26.65;;
51578;SDS011;47998;53.242;6.386;2022-12-01T09:35:08;74.00;;;28.38;;
51578;SDS011;47998;53.242;6.386;2022-12-01T09:37:34;76.00;;;30.15;;
51578;SDS011;47998;53.242;6.386;2022-12-01T09:39:59;89.88;;;31.27;;
51578;SDS011;47998;53.242;6.386;2022-12-01T09:42:25;73.88;;;29.33;;
51578;SDS011;47998;53.242;6.386;2022-12-01T09:44:52;69.50;;;27.40;;
51578;SDS011;47998;53.242;6.386;2022-12-01T09:47:21;65.75;;;27.55;;
51578;SDS011;47998;53.242;6.386;2022-12-01T09:50:10;74.25;;;29.83;;
51578;SDS011;47998;53.242;6.386;2022-12-01T09:52:45;70.57;;;29.27;;
51578;SDS011;47998;53.242;6.386;2022-12-01T09:55:18;58.30;;;26.92;;
51578;SDS011;47998;53.242;6.386;2022-12-01T09:57:46;56.95;;;24.95;;
51578;SDS011;47998;53.242;6.386;2022-12-01T10:00:14;75.97;;;29.08;;
51578;SDS011;47998;53.242;6.386;2022-12-01T10:08:17;63.63;;;27.88;;
51578;SDS011;47998;53.242;6.386;2022-12-01T10:10:47;49.03;;;24.05;;
51578;SDS011;47998;53.242;6.386;2022-12-01T10:15:51;54.30;;;25.70;;
51578;SDS011;47998;53.242;6.386;2022-12-01T10:24:42;42.75;;;23.25;;
51578;SDS011;47998;53.242;6.386;2022-12-01T10:30:17;41.83;;;21.45;;
51578;SDS011;47998;53.242;6.386;2022-12-01T10:32:53;43.60;;;22.95;;
51578;SDS011;47998;53.242;6.386;2022-12-01T10:35:25;38.28;;;21.55;;
51578;SDS011;47998;53.242;6.386;2022-12-01T10:37:55;37.83;;;20.13;;
51578;SDS011;47998;53.242;6.386;2022-12-01T10:40:23;39.85;;;21.05;;
51578;SDS011;47998;53.242;6.386;2022-12-01T10:42:50;34.33;;;19.00;;
51578;SDS011;47998;53.242;6.386;2022-12-01T10:45:21;37.30;;;20.15;;
51578;SDS011;47998;53.242;6.386;2022-12-01T10:50:40;33.47;;;18.08;;
51578;SDS011;47998;53.242;6.386;2022-12-01T10:58:47;23.20;;;14.30;;
51578;SDS011;47998;53.242;6.386;2022-12-01T11:04:05;23.98;;;15.00;;
51578;SDS011;47998;53.242;6.386;2022-12-01T11:06:47;20.45;;;13.65;;
51578;SDS011;47998;53.242;6.386;2022-12-01T11:09:18;21.90;;;14.13;;
51578;SDS011;47998;53.242;6.386;2022-12-01T11:11:46;20.15;;;13.15;;
51578;SDS011;47998;53.242;6.386;2022-12-01T11:14:32;21.73;;;13.68;;
51578;SDS011;47998;53.242;6.386;2022-12-01T11:16:59;23.33;;;14.23;;
51578;SDS011;47998;53.242;6.386;2022-12-01T11:19:39;24.25;;;14.02;;
51578;SDS011;47998;53.242;6.386;2022-12-01T11:22:18;22.35;;;13.63;;
51578;SDS011;47998;53.242;6.386;2022-12-01T11:25:03;22.25;;;14.32;;
51578;SDS011;47998;53.242;6.386;2022-12-01T11:28:14;21.75;;;13.52;;
51578;SDS011;47998;53.242;6.386;2022-12-01T11:30:25;24.60;;;15.48;;
51578;SDS011;47998;53.242;6.386;2022-12-01T11:33:00;26.13;;;16.88;;
51578;SDS011;47998;53.242;6.386;2022-12-01T11:35:31;28.42;;;17.27;;
51578;SDS011;47998;53.242;6.386;2022-12-01T11:38:00;27.38;;;18.65;;
51578;SDS011;47998;53.242;6.386;2022-12-01T11:40:31;31.45;;;19.42;;
51578;SDS011;47998;53.242;6.386;2022-12-01T11:43:03;31.13;;;20.75;;
51578;SDS011;47998;53.242;6.386;2022-12-01T11:45:39;32.17;;;19.33;;
51578;SDS011;47998;53.242;6.386;2022-12-01T11:48:06;34.13;;;20.23;;
51578;SDS011;47998;53.242;6.386;2022-12-01T11:50:59;32.95;;;19.65;;
51578;SDS011;47998;53.242;6.386;2022-12-01T11:53:29;36.88;;;21.40;;
51578;SDS011;47998;53.242;6.386;2022-12-01T11:56:13;36.97;;;22.52;;
51578;SDS011;47998;53.242;6.386;2022-12-01T11:59:02;40.22;;;23.70;;
51578;SDS011;47998;53.242;6.386;2022-12-01T12:21:40;38.00;;;23.40;;
51578;SDS011;47998;53.242;6.386;2022-12-01T12:24:19;41.63;;;24.13;;
51578;SDS011;47998;53.242;6.386;2022-12-01T12:27:17;41.72;;;23.85;;
51578;SDS011;47998;53.242;6.386;2022-12-01T12:33:03;38.85;;;24.10;;
51578;SDS011;47998;53.242;6.386;2022-12-01T12:38:50;42.45;;;25.50;;
51578;SDS011;47998;53.242;6.386;2022-12-01T12:52:24;41.38;;;23.80;;
51578;SDS011;47998;53.242;6.386;2022-12-01T12:55:10;37.60;;;23.77;;
51578;SDS011;47998;53.242;6.386;2022-12-01T12:57:56;41.28;;;24.63;;
51578;SDS011;47998;53.242;6.386;2022-12-01T13:00:27;35.75;;;23.80;;
51578;SDS011;47998;53.242;6.386;2022-12-01T13:03:04;43.28;;;26.42;;
51578;SDS011;47998;53.242;6.386;2022-12-01T13:05:52;36.78;;;24.15;;
51578;SDS011;47998;53.242;6.386;2022-12-01T13:08:42;39.22;;;24.83;;
51578;SDS011;47998;53.242;6.386;2022-12-01T13:11:17;39.50;;;24.58;;
51578;SDS011;47998;53.242;6.386;2022-12-01T13:16:49;35.92;;;24.63;;
51578;SDS011;47998;53.242;6.386;2022-12-01T13:19:53;40.88;;;28.02;;
51578;SDS011;47998;53.242;6.386;2022-12-01T13:22:12;32.72;;;22.80;;
51578;SDS011;47998;53.242;6.386;2022-12-01T13:24:40;33.17;;;23.45;;
51578;SDS011;47998;53.242;6.386;2022-12-01T13:29:35;37.13;;;25.20;;
51578;SDS011;47998;53.242;6.386;2022-12-01T13:32:03;38.67;;;26.10;;
51578;SDS011;47998;53.242;6.386;2022-12-01T13:34:32;40.47;;;26.83;;
51578;SDS011;47998;53.242;6.386;2022-12-01T13:37:07;41.78;;;27.75;;
51578;SDS011;47998;53.242;6.386;2022-12-01T13:39:38;40.40;;;26.38;;
51578;SDS011;47998;53.242;6.386;2022-12-01T13:42:18;43.92;;;28.15;;
51578;SDS011;47998;53.242;6.386;2022-12-01T13:44:56;47.00;;;28.67;;
51578;SDS011;47998;53.242;6.386;2022-12-01T13:53:13;45.55;;;27.55;;
51578;SDS011;47998;53.242;6.386;2022-12-01T13:55:57;51.28;;;29.33;;
51578;SDS011;47998;53.242;6.386;2022-12-01T13:58:43;55.20;;;30.73;;
51578;SDS011;47998;53.242;6.386;2022-12-01T14:03:58;60.13;;;30.92;;
51578;SDS011;47998;53.242;6.386;2022-12-01T14:06:48;60.20;;;32.05;;
51578;SDS011;47998;53.242;6.386;2022-12-01T14:09:35;57.53;;;31.40;;
51578;SDS011;47998;53.242;6.386;2022-12-01T14:14:54;63.22;;;32.65;;
51578;SDS011;47998;53.242;6.386;2022-12-01T14:17:30;57.60;;;30.70;;
51578;SDS011;47998;53.242;6.386;2022-12-01T14:20:03;62.40;;;31.42;;
51578;SDS011;47998;53.242;6.386;2022-12-01T14:22:33;59.03;;;31.42;;
51578;SDS011;47998;53.242;6.386;2022-12-01T14:25:05;59.35;;;30.50;;
51578;SDS011;47998;53.242;6.386;2022-12-01T14:27:46;53.60;;;31.50;;
51578;SDS011;47998;53.242;6.386;2022-12-01T14:39:12;54.65;;;28.80;;
51578;SDS011;47998;53.242;6.386;2022-12-01T14:41:52;54.55;;;29.27;;
51578;SDS011;47998;53.242;6.386;2022-12-01T14:47:16;54.60;;;29.85;;
51578;SDS011;47998;53.242;6.386;2022-12-01T14:49:55;54.38;;;30.55;;
51578;SDS011;47998;53.242;6.386;2022-12-01T14:52:29;54.03;;;28.52;;
51578;SDS011;47998;53.242;6.386;2022-12-01T14:55:11;57.72;;;30.10;;
51578;SDS011;47998;53.242;6.386;2022-12-01T14:57:51;59.45;;;31.35;;
51578;SDS011;47998;53.242;6.386;2022-12-01T15:00:26;60.58;;;31.58;;
51578;SDS011;47998;53.242;6.386;2022-12-01T15:02:55;59.33;;;31.83;;
51578;SDS011;47998;53.242;6.386;2022-12-01T15:05:26;56.60;;;30.35;;
51578;SDS011;47998;53.242;6.386;2022-12-01T15:13:10;65.95;;;34.22;;
51578;SDS011;47998;53.242;6.386;2022-12-01T15:15:47;68.78;;;34.95;;
51578;SDS011;47998;53.242;6.386;2022-12-01T15:18:22;67.10;;;34.92;;
51578;SDS011;47998;53.242;6.386;2022-12-01T15:20:57;71.88;;;35.28;;
51578;SDS011;47998;53.242;6.386;2022-12-01T15:23:32;73.72;;;34.75;;
51578;SDS011;47998;53.242;6.386;2022-12-01T15:25:58;64.70;;;34.45;;
51578;SDS011;47998;53.242;6.386;2022-12-01T15:28:31;76.50;;;35.97;;
51578;SDS011;47998;53.242;6.386;2022-12-01T15:30:58;71.30;;;36.15;;
51578;SDS011;47998;53.242;6.386;2022-12-01T15:33:30;65.28;;;34.63;;
51578;SDS011;47998;53.242;6.386;2022-12-01T15:35:58;68.82;;;33.63;;
51578;SDS011;47998;53.242;6.386;2022-12-01T15:38:27;68.45;;;35.35;;
51578;SDS011;47998;53.242;6.386;2022-12-01T15:40:55;77.03;;;35.85;;
51578;SDS011;47998;53.242;6.386;2022-12-01T15:43:43;78.63;;;37.53;;
51578;SDS011;47998;53.242;6.386;2022-12-01T15:46:12;74.13;;;38.25;;
51578;SDS011;47998;53.242;6.386;2022-12-01T15:48:39;74.68;;;37.40;;
51578;SDS011;47998;53.242;6.386;2022-12-01T15:53:53;80.38;;;39.28;;
51578;SDS011;47998;53.242;6.386;2022-12-01T15:59:06;81.13;;;37.88;;
51578;SDS011;47998;53.242;6.386;2022-12-01T16:01:36;76.65;;;40.25;;
51578;SDS011;47998;53.242;6.386;2022-12-01T16:04:05;92.00;;;42.55;;
51578;SDS011;47998;53.242;6.386;2022-12-01T16:06:40;95.25;;;43.15;;
51578;SDS011;47998;53.242;6.386;2022-12-01T16:09:17;97.25;;;43.55;;
51578;SDS011;47998;53.242;6.386;2022-12-01T16:14:31;148.23;;;66.88;;
51578;SDS011;47998;53.242;6.386;2022-12-01T16:16:58;115.30;;;55.22;;
51578;SDS011;47998;53.242;6.386;2022-12-01T16:19:26;118.45;;;53.10;;
51578;SDS011;47998;53.242;6.386;2022-12-01T16:21:56;103.70;;;50.60;;
51578;SDS011;47998;53.242;6.386;2022-12-01T16:24:37;119.28;;;55.08;;
51578;SDS011;47998;53.242;6.386;2022-12-01T16:29:48;113.50;;;49.90;;
51578;SDS011;47998;53.242;6.386;2022-12-01T16:34:47;105.88;;;48.67;;
51578;SDS011;47998;53.242;6.386;2022-12-01T16:37:16;117.65;;;50.78;;
51578;SDS011;47998;53.242;6.386;2022-12-01T16:39:43;112.95;;;47.38;;
51578;SDS011;47998;53.242;6.386;2022-12-01T16:42:13;110.32;;;48.05;;
51578;SDS011;47998;53.242;6.386;2022-12-01T16:44:40;111.47;;;49.53;;
51578;SDS011;47998;53.242;6.386;2022-12-01T16:47:25;104.28;;;47.33;;
51578;SDS011;47998;53.242;6.386;2022-12-01T16:49:55;111.30;;;48.45;;
51578;SDS011;47998;53.242;6.386;2022-12-01T16:52:20;102.45;;;47.85;;
51578;SDS011;47998;53.242;6.386;2022-12-01T16:54:47;112.57;;;51.60;;
51578;SDS011;47998;53.242;6.386;2022-12-01T16:57:13;117.57;;;50.97;;
51578;SDS011;47998;53.242;6.386;2022-12-01T16:59:41;109.25;;;48.97;;